AirNav   Pilot Hours Calculator
 
 1444 users online  

5CT7 Mile Creek Airport
Old Lyme, Connecticut, USA

GOING TO OLD LYME?


FAA INFORMATION EFFECTIVE 01 DECEMBER 2022

Location

FAA Identifier: 5CT7
Lat/Long: 41-18-08.4000N 072-17-46.3000W
41-18.140000N 072-17.771667W
41.3023333,-72.2961944
(estimated)
Elevation: 30 ft. / 9 m (estimated)
Variation: 15W (1995)
From city: 3 miles SE of OLD LYME, CT
Time zone: UTC -5 (UTC -4 during Daylight Saving Time)
Zip code: 06371

Airport Operations

Airport use: Private use. Permission required prior to landing
Activation date: 03/1998
Control tower: no
ARTCC: BOSTON CENTER
FSS: BRIDGEPORT FLIGHT SERVICE STATION
Attendance: UNATNDD
Segmented circle: no

Airport Communications

WX AWOS-3 at SNC (11 nm NW): 118.325 (860-526-1551)
WX ASOS at GON (11 nm E): 127.0 (860-449-8921)

Nearby radio navigation aids

VOR radial/distance  VOR name  Freq  Var
GONr275/11.1GROTON VOR/DME110.8514W
MADr105/17.9MADISON VOR/DME110.4013W
ORWr235/20.3NORWICH VOR/DME110.0014W
HTOr015/23.0HAMPTON VORTAC113.6013W
HFDr164/23.3HARTFORD VOR/DME114.9013W
CCCr058/31.9CALVERTON VOR/DME117.2013W
SEYr299/33.5SANDY POINT VOR/DME117.8015W
BDRr089/38.3BRIDGEPORT VOR/DME108.8012W

Airport Services

Runway Information

Runway 2/20

Dimensions: 1800 x 100 ft. / 549 x 30 m
Surface: turf
RUNWAY 2  RUNWAY 20
Traffic pattern: leftleft
Obstructions: 50 ft. trees, 200 ft. from runway50 ft. trees, 200 ft. from runway

Airport Ownership and Management from official FAA records

Ownership: Privately-owned
Owner: TODD J. MACHNIK
126 MILE CREEK ROAD
OLD LYME, CT 06371
Phone 203-434-1330
Manager: TODD J. MACHNIK
126 MILE CREEK ROAD
OLD LYME, CT 06371
Phone 203-434-1330

Airport Operational Statistics

Aircraft based on the field: 1
Single engine airplanes: 1
    

Additional Remarks

FOR CD CTC PROVIDENCE APCH AT 401-738-8945, WHEN APCH CLSD CTC BOSTON ARTCC AT 603-879-6859.

Instrument Procedures

There are no published instrument procedures at 5CT7.

Some nearby airports with instrument procedures:

KSNC - Chester Airport (11 nm NW)
KGON - Groton-New London Airport (11 nm E)
0B8 - Elizabeth Field Airport (12 nm E)
KJPX - East Hampton Town Airport (21 nm S)
KMTP - Montauk Airport (22 nm SE)
 
Loc | Ops | Rwys | IFR | FBO | Links
Com | Nav | Svcs | Stats | Notes

Silver City Flying Club
 
Area around 5CT7 (Mile Creek Airport)
 
Road maps at: MapQuest Bing Google
 
Aerial photo
No photo
 
Sectional chart

 
Airport distance calculator
Flying to Mile Creek Airport? Find the distance to fly.

From to 5CT7

Sunrise and sunset
Times for 08-Dec-2022
 Local
(UTC-5)
 Zulu
(UTC)
Morning civil twilight06:3211:32
Sunrise07:0312:03
Sunset16:1921:19
Evening civil twilight16:5021:50

Current date and time
Zulu (UTC)  08-Dec-2022 15:43:52
Local (UTC-5)  08-Dec-2022 10:43:52
 
METAR
KSNC 
11nm NW 
081515Z AUTO 31014KT 10SM CLR 11/03 A3019 RMK AO2
KGON 
11nm E 
081456Z 32017G24KT 10SM CLR 12/04 A3016 RMK AO2 PK WND 33027/1439 SLP212 T01170044 51006
KJPX 
21nm S 
081515Z AUTO 34013G20KT 10SM CLR 10/02 A3017 RMK AO2 T01000021
TAF
KGON 
11nm E 
081120Z 0812/0912 33009KT P6SM FEW250 FM081500 33012G20KT P6SM FEW035 SCT250 FM082100 33011KT P6SM FEW035 SCT250 FM090300 35008KT P6SM SCT250
NOTAMs
Click for the latest NOTAMs
NOTAMs are issued by the DoD/FAA and will open in a separate window not controlled by AirNav.

 

 
 

Would you like to see your business listed on this page?

 If your business provides an interesting product or service to pilots, flight crews, aircraft, or users of the Mile Creek Airport, you should consider listing it here.  To start the listing process, click on the button below
 
Add a business
 

Other Pages about Mile Creek Airport

Update a link
 
Copyright © AirNav, LLC. All rights reserved. Privacy Policy  Contact